sensor_id;sensor_type;location;lat;lon;timestamp;temperature;humidity
26687;DHT22;14298;50.900;4.648;2022-11-20T00:01:32;2.90;97.10
26687;DHT22;14298;50.900;4.648;2022-11-20T00:04:00;3.00;97.10
26687;DHT22;14298;50.900;4.648;2022-11-20T00:06:29;3.00;97.10
26687;DHT22;14298;50.900;4.648;2022-11-20T00:08:59;3.00;97.10
26687;DHT22;14298;50.900;4.648;2022-11-20T00:11:30;3.10;97.10
26687;DHT22;14298;50.900;4.648;2022-11-20T00:14:00;3.00;97.10
26687;DHT22;14298;50.900;4.648;2022-11-20T00:19:18;2.90;97.10
26687;DHT22;14298;50.900;4.648;2022-11-20T00:21:46;3.00;97.10
26687;DHT22;14298;50.900;4.648;2022-11-20T00:24:16;3.00;97.10
26687;DHT22;14298;50.900;4.648;2022-11-20T00:26:45;3.10;97.10
26687;DHT22;14298;50.900;4.648;2022-11-20T00:29:13;3.00;97.10
26687;DHT22;14298;50.900;4.648;2022-11-20T00:31:41;3.00;97.10
26687;DHT22;14298;50.900;4.648;2022-11-20T00:34:10;3.10;97.10
26687;DHT22;14298;50.900;4.648;2022-11-20T00:36:38;3.10;97.10
26687;DHT22;14298;50.900;4.648;2022-11-20T00:39:07;3.00;97.10
26687;DHT22;14298;50.900;4.648;2022-11-20T00:41:35;3.10;97.10
26687;DHT22;14298;50.900;4.648;2022-11-20T00:44:04;3.20;97.10
26687;DHT22;14298;50.900;4.648;2022-11-20T00:46:32;3.20;97.10
26687;DHT22;14298;50.900;4.648;2022-11-20T00:49:01;3.30;97.10
26687;DHT22;14298;50.900;4.648;2022-11-20T00:51:29;3.20;97.10
26687;DHT22;14298;50.900;4.648;2022-11-20T00:53:58;3.10;97.10
26687;DHT22;14298;50.900;4.648;2022-11-20T00:56:27;3.10;97.10
26687;DHT22;14298;50.900;4.648;2022-11-20T00:58:58;3.10;97.10
26687;DHT22;14298;50.900;4.648;2022-11-20T01:01:26;2.90;97.10
26687;DHT22;14298;50.900;4.648;2022-11-20T01:03:58;2.90;97.10
26687;DHT22;14298;50.900;4.648;2022-11-20T01:06:29;2.90;97.10
26687;DHT22;14298;50.900;4.648;2022-11-20T01:09:01;3.00;97.10
26687;DHT22;14298;50.900;4.648;2022-11-20T01:11:33;2.80;97.10
26687;DHT22;14298;50.900;4.648;2022-11-20T01:14:03;2.80;97.10
26687;DHT22;14298;50.900;4.648;2022-11-20T01:16:34;2.80;97.10
26687;DHT22;14298;50.900;4.648;2022-11-20T01:19:05;3.00;97.10
26687;DHT22;14298;50.900;4.648;2022-11-20T01:21:37;3.10;97.10
26687;DHT22;14298;50.900;4.648;2022-11-20T01:24:09;3.20;97.10
26687;DHT22;14298;50.900;4.648;2022-11-20T01:26:38;3.20;97.10
26687;DHT22;14298;50.900;4.648;2022-11-20T01:29:08;3.40;97.10
26687;DHT22;14298;50.900;4.648;2022-11-20T01:31:37;3.40;97.10
26687;DHT22;14298;50.900;4.648;2022-11-20T01:34:14;3.50;97.10
26687;DHT22;14298;50.900;4.648;2022-11-20T01:36:43;3.50;97.10
26687;DHT22;14298;50.900;4.648;2022-11-20T01:39:17;3.60;97.10
26687;DHT22;14298;50.900;4.648;2022-11-20T01:41:47;3.60;97.10
26687;DHT22;14298;50.900;4.648;2022-11-20T01:44:51;3.60;97.10
26687;DHT22;14298;50.900;4.648;2022-11-20T01:47:31;3.60;97.10
26687;DHT22;14298;50.900;4.648;2022-11-20T01:50:06;3.50;97.10
26687;DHT22;14298;50.900;4.648;2022-11-20T01:52:40;3.50;97.10
26687;DHT22;14298;50.900;4.648;2022-11-20T01:55:15;3.50;97.10
26687;DHT22;14298;50.900;4.648;2022-11-20T01:57:44;3.50;97.10
26687;DHT22;14298;50.900;4.648;2022-11-20T02:00:16;3.50;97.10
26687;DHT22;14298;50.900;4.648;2022-11-20T02:02:55;3.60;97.10
26687;DHT22;14298;50.900;4.648;2022-11-20T02:05:34;3.60;97.10
26687;DHT22;14298;50.900;4.648;2022-11-20T02:08:04;3.60;97.10
26687;DHT22;14298;50.900;4.648;2022-11-20T02:10:34;3.60;97.10
26687;DHT22;14298;50.900;4.648;2022-11-20T02:13:03;3.60;97.10
26687;DHT22;14298;50.900;4.648;2022-11-20T02:15:49;3.60;97.10
26687;DHT22;14298;50.900;4.648;2022-11-20T02:18:20;3.50;97.10
26687;DHT22;14298;50.900;4.648;2022-11-20T02:20:53;3.50;97.10
26687;DHT22;14298;50.900;4.648;2022-11-20T02:23:29;3.50;97.10
26687;DHT22;14298;50.900;4.648;2022-11-20T02:25:59;3.50;97.10
26687;DHT22;14298;50.900;4.648;2022-11-20T02:28:28;3.50;97.10
26687;DHT22;14298;50.900;4.648;2022-11-20T02:30:57;3.50;97.10
26687;DHT22;14298;50.900;4.648;2022-11-20T02:33:25;3.50;97.10
26687;DHT22;14298;50.900;4.648;2022-11-20T02:35:54;3.50;97.10
26687;DHT22;14298;50.900;4.648;2022-11-20T02:38:22;3.50;97.10
26687;DHT22;14298;50.900;4.648;2022-11-20T02:40:50;3.60;97.10
26687;DHT22;14298;50.900;4.648;2022-11-20T02:43:19;3.50;97.10
26687;DHT22;14298;50.900;4.648;2022-11-20T02:45:47;3.50;97.10
26687;DHT22;14298;50.900;4.648;2022-11-20T02:48:15;3.50;97.10
26687;DHT22;14298;50.900;4.648;2022-11-20T02:50:44;3.50;97.10
26687;DHT22;14298;50.900;4.648;2022-11-20T02:53:12;3.50;97.10
26687;DHT22;14298;50.900;4.648;2022-11-20T02:55:40;3.50;97.10
26687;DHT22;14298;50.900;4.648;2022-11-20T02:58:08;3.40;97.10
26687;DHT22;14298;50.900;4.648;2022-11-20T03:00:37;3.40;97.10
26687;DHT22;14298;50.900;4.648;2022-11-20T03:03:05;3.40;97.10
26687;DHT22;14298;50.900;4.648;2022-11-20T03:05:33;3.50;97.10
26687;DHT22;14298;50.900;4.648;2022-11-20T03:08:02;3.50;97.10
26687;DHT22;14298;50.900;4.648;2022-11-20T03:10:30;3.60;97.10
26687;DHT22;14298;50.900;4.648;2022-11-20T03:12:58;3.60;97.10
26687;DHT22;14298;50.900;4.648;2022-11-20T03:15:27;3.60;97.10
26687;DHT22;14298;50.900;4.648;2022-11-20T03:17:55;3.60;97.10
26687;DHT22;14298;50.900;4.648;2022-11-20T03:20:23;3.60;97.10
26687;DHT22;14298;50.900;4.648;2022-11-20T03:22:54;3.50;97.10
26687;DHT22;14298;50.900;4.648;2022-11-20T03:25:22;3.50;97.10
26687;DHT22;14298;50.900;4.648;2022-11-20T03:27:51;3.60;97.10
26687;DHT22;14298;50.900;4.648;2022-11-20T03:30:19;3.50;97.10
26687;DHT22;14298;50.900;4.648;2022-11-20T03:32:48;3.60;97.10
26687;DHT22;14298;50.900;4.648;2022-11-20T03:35:16;3.70;97.10
26687;DHT22;14298;50.900;4.648;2022-11-20T03:37:44;3.70;97.10
26687;DHT22;14298;50.900;4.648;2022-11-20T03:40:13;3.70;97.10
26687;DHT22;14298;50.900;4.648;2022-11-20T03:42:41;3.70;97.10
26687;DHT22;14298;50.900;4.648;2022-11-20T03:45:17;3.70;97.10
26687;DHT22;14298;50.900;4.648;2022-11-20T03:47:46;3.70;97.10
26687;DHT22;14298;50.900;4.648;2022-11-20T03:50:14;3.70;97.10
26687;DHT22;14298;50.900;4.648;2022-11-20T03:52:43;3.70;97.10
26687;DHT22;14298;50.900;4.648;2022-11-20T03:55:11;3.80;97.10
26687;DHT22;14298;50.900;4.648;2022-11-20T03:57:39;3.80;97.10
26687;DHT22;14298;50.900;4.648;2022-11-20T04:00:08;3.80;97.10
26687;DHT22;14298;50.900;4.648;2022-11-20T04:02:37;3.80;97.10
26687;DHT22;14298;50.900;4.648;2022-11-20T04:05:05;3.90;97.10
26687;DHT22;14298;50.900;4.648;2022-11-20T04:07:34;3.80;97.10
26687;DHT22;14298;50.900;4.648;2022-11-20T04:10:02;3.90;97.10
26687;DHT22;14298;50.900;4.648;2022-11-20T04:12:34;3.90;97.10
26687;DHT22;14298;50.900;4.648;2022-11-20T04:15:02;3.90;97.10
26687;DHT22;14298;50.900;4.648;2022-11-20T04:17:31;3.90;97.10
26687;DHT22;14298;50.900;4.648;2022-11-20T04:19:59;3.90;97.10
26687;DHT22;14298;50.900;4.648;2022-11-20T04:22:27;3.90;97.10
26687;DHT22;14298;50.900;4.648;2022-11-20T04:24:56;3.90;97.10
26687;DHT22;14298;50.900;4.648;2022-11-20T04:27:24;3.90;97.10
26687;DHT22;14298;50.900;4.648;2022-11-20T04:29:52;3.90;97.10
26687;DHT22;14298;50.900;4.648;2022-11-20T04:32:20;3.90;97.10
26687;DHT22;14298;50.900;4.648;2022-11-20T04:34:49;3.80;97.10
26687;DHT22;14298;50.900;4.648;2022-11-20T04:37:17;3.60;97.10
26687;DHT22;14298;50.900;4.648;2022-11-20T04:39:45;3.50;97.10
26687;DHT22;14298;50.900;4.648;2022-11-20T04:42:14;3.40;97.10
26687;DHT22;14298;50.900;4.648;2022-11-20T04:44:44;3.30;97.10
26687;DHT22;14298;50.900;4.648;2022-11-20T04:47:12;3.20;97.10
26687;DHT22;14298;50.900;4.648;2022-11-20T04:49:40;3.00;97.10
26687;DHT22;14298;50.900;4.648;2022-11-20T04:52:09;2.90;97.10
26687;DHT22;14298;50.900;4.648;2022-11-20T04:54:37;2.80;97.10
26687;DHT22;14298;50.900;4.648;2022-11-20T04:57:05;2.70;97.10
26687;DHT22;14298;50.900;4.648;2022-11-20T04:59:34;2.60;97.10
26687;DHT22;14298;50.900;4.648;2022-11-20T05:02:02;2.50;97.10
26687;DHT22;14298;50.900;4.648;2022-11-20T05:04:30;2.50;97.10
26687;DHT22;14298;50.900;4.648;2022-11-20T05:06:59;2.60;97.10
26687;DHT22;14298;50.900;4.648;2022-11-20T05:09:27;2.60;97.10
26687;DHT22;14298;50.900;4.648;2022-11-20T05:11:55;2.70;97.10
26687;DHT22;14298;50.900;4.648;2022-11-20T05:14:23;2.80;97.10
26687;DHT22;14298;50.900;4.648;2022-11-20T05:16:52;2.90;97.10
26687;DHT22;14298;50.900;4.648;2022-11-20T05:19:20;3.00;97.10
26687;DHT22;14298;50.900;4.648;2022-11-20T05:21:49;3.10;97.10
26687;DHT22;14298;50.900;4.648;2022-11-20T05:24:17;3.10;97.10
26687;DHT22;14298;50.900;4.648;2022-11-20T05:26:45;3.10;97.10
26687;DHT22;14298;50.900;4.648;2022-11-20T05:29:13;3.20;97.10
26687;DHT22;14298;50.900;4.648;2022-11-20T05:31:42;3.40;97.10
26687;DHT22;14298;50.900;4.648;2022-11-20T05:34:10;3.50;97.10
26687;DHT22;14298;50.900;4.648;2022-11-20T05:36:38;3.50;97.10
26687;DHT22;14298;50.900;4.648;2022-11-20T05:39:07;3.50;97.10
26687;DHT22;14298;50.900;4.648;2022-11-20T05:41:35;3.50;97.10
26687;DHT22;14298;50.900;4.648;2022-11-20T05:44:04;3.50;97.10
26687;DHT22;14298;50.900;4.648;2022-11-20T05:46:32;3.40;97.10
26687;DHT22;14298;50.900;4.648;2022-11-20T05:49:00;3.50;97.10
26687;DHT22;14298;50.900;4.648;2022-11-20T05:51:28;3.50;97.10
26687;DHT22;14298;50.900;4.648;2022-11-20T05:53:57;3.50;97.10
26687;DHT22;14298;50.900;4.648;2022-11-20T05:56:26;3.50;97.10
26687;DHT22;14298;50.900;4.648;2022-11-20T05:58:54;3.50;97.10
26687;DHT22;14298;50.900;4.648;2022-11-20T06:01:24;3.40;97.10
26687;DHT22;14298;50.900;4.648;2022-11-20T06:03:53;3.50;97.10
26687;DHT22;14298;50.900;4.648;2022-11-20T06:06:22;3.50;97.10
26687;DHT22;14298;50.900;4.648;2022-11-20T06:08:52;3.50;97.10
26687;DHT22;14298;50.900;4.648;2022-11-20T06:11:20;3.60;97.10
26687;DHT22;14298;50.900;4.648;2022-11-20T06:13:49;3.70;97.10
26687;DHT22;14298;50.900;4.648;2022-11-20T06:16:19;3.80;97.10
26687;DHT22;14298;50.900;4.648;2022-11-20T06:18:49;3.90;97.10
26687;DHT22;14298;50.900;4.648;2022-11-20T06:21:19;3.80;97.10
26687;DHT22;14298;50.900;4.648;2022-11-20T06:23:49;3.90;97.10
26687;DHT22;14298;50.900;4.648;2022-11-20T06:26:20;3.90;97.10
26687;DHT22;14298;50.900;4.648;2022-11-20T06:28:50;3.90;97.10
26687;DHT22;14298;50.900;4.648;2022-11-20T06:31:20;3.90;97.10
26687;DHT22;14298;50.900;4.648;2022-11-20T06:33:49;3.80;97.10
26687;DHT22;14298;50.900;4.648;2022-11-20T06:36:20;3.80;97.10
26687;DHT22;14298;50.900;4.648;2022-11-20T06:38:49;3.80;97.10
26687;DHT22;14298;50.900;4.648;2022-11-20T06:41:19;3.80;97.10
26687;DHT22;14298;50.900;4.648;2022-11-20T06:43:48;3.80;97.10
26687;DHT22;14298;50.900;4.648;2022-11-20T06:46:18;3.90;97.10
26687;DHT22;14298;50.900;4.648;2022-11-20T06:48:48;3.90;97.10
26687;DHT22;14298;50.900;4.648;2022-11-20T06:51:17;3.80;97.10
26687;DHT22;14298;50.900;4.648;2022-11-20T06:53:45;3.90;97.10
26687;DHT22;14298;50.900;4.648;2022-11-20T06:56:13;3.90;97.10
26687;DHT22;14298;50.900;4.648;2022-11-20T06:58:42;4.00;97.10
26687;DHT22;14298;50.900;4.648;2022-11-20T07:01:13;4.00;97.10
26687;DHT22;14298;50.900;4.648;2022-11-20T07:03:42;4.00;97.10
26687;DHT22;14298;50.900;4.648;2022-11-20T07:06:10;4.00;97.10
26687;DHT22;14298;50.900;4.648;2022-11-20T07:08:38;4.00;97.10
26687;DHT22;14298;50.900;4.648;2022-11-20T07:11:07;4.00;97.10
26687;DHT22;14298;50.900;4.648;2022-11-20T07:13:36;4.00;97.10
26687;DHT22;14298;50.900;4.648;2022-11-20T07:16:07;4.10;97.10
26687;DHT22;14298;50.900;4.648;2022-11-20T07:18:36;4.10;97.10
26687;DHT22;14298;50.900;4.648;2022-11-20T07:21:08;4.20;97.10
26687;DHT22;14298;50.900;4.648;2022-11-20T07:23:36;4.20;97.10
26687;DHT22;14298;50.900;4.648;2022-11-20T07:26:06;4.30;97.10
26687;DHT22;14298;50.900;4.648;2022-11-20T07:28:35;4.30;97.10
26687;DHT22;14298;50.900;4.648;2022-11-20T07:31:04;4.40;97.10
26687;DHT22;14298;50.900;4.648;2022-11-20T07:33:33;4.30;97.10
26687;DHT22;14298;50.900;4.648;2022-11-20T07:36:02;4.30;97.10
26687;DHT22;14298;50.900;4.648;2022-11-20T07:38:30;4.40;97.10
26687;DHT22;14298;50.900;4.648;2022-11-20T07:40:59;4.40;97.10
26687;DHT22;14298;50.900;4.648;2022-11-20T07:43:29;4.50;97.10
26687;DHT22;14298;50.900;4.648;2022-11-20T07:45:58;4.50;97.10
26687;DHT22;14298;50.900;4.648;2022-11-20T07:48:27;4.40;97.10
26687;DHT22;14298;50.900;4.648;2022-11-20T07:50:56;4.40;97.10
26687;DHT22;14298;50.900;4.648;2022-11-20T07:53:25;4.60;97.10
26687;DHT22;14298;50.900;4.648;2022-11-20T07:55:53;4.60;97.10
26687;DHT22;14298;50.900;4.648;2022-11-20T07:58:22;4.60;97.10
26687;DHT22;14298;50.900;4.648;2022-11-20T08:00:50;4.60;97.10
26687;DHT22;14298;50.900;4.648;2022-11-20T08:03:18;4.60;97.10
26687;DHT22;14298;50.900;4.648;2022-11-20T08:05:47;4.60;97.10
26687;DHT22;14298;50.900;4.648;2022-11-20T08:08:15;4.70;97.10
26687;DHT22;14298;50.900;4.648;2022-11-20T08:10:43;4.60;97.10
26687;DHT22;14298;50.900;4.648;2022-11-20T08:13:12;4.70;97.10
26687;DHT22;14298;50.900;4.648;2022-11-20T08:15:58;4.80;97.10
26687;DHT22;14298;50.900;4.648;2022-11-20T08:18:26;4.80;97.10
26687;DHT22;14298;50.900;4.648;2022-11-20T08:20:54;4.80;97.10
26687;DHT22;14298;50.900;4.648;2022-11-20T08:23:23;5.00;97.10
26687;DHT22;14298;50.900;4.648;2022-11-20T08:25:51;5.00;97.10
26687;DHT22;14298;50.900;4.648;2022-11-20T08:28:19;5.00;97.10
26687;DHT22;14298;50.900;4.648;2022-11-20T08:30:49;5.00;97.10
26687;DHT22;14298;50.900;4.648;2022-11-20T08:33:18;5.10;97.10
26687;DHT22;14298;50.900;4.648;2022-11-20T08:35:46;5.00;97.10
26687;DHT22;14298;50.900;4.648;2022-11-20T08:38:14;5.00;97.10
26687;DHT22;14298;50.900;4.648;2022-11-20T08:40:43;5.10;97.10
26687;DHT22;14298;50.900;4.648;2022-11-20T08:43:16;5.20;97.10
26687;DHT22;14298;50.900;4.648;2022-11-20T08:45:44;5.20;97.10
26687;DHT22;14298;50.900;4.648;2022-11-20T08:48:12;5.20;97.10
26687;DHT22;14298;50.900;4.648;2022-11-20T08:50:41;5.20;97.10
26687;DHT22;14298;50.900;4.648;2022-11-20T08:53:09;5.30;97.10
26687;DHT22;14298;50.900;4.648;2022-11-20T08:55:37;5.40;97.10
26687;DHT22;14298;50.900;4.648;2022-11-20T08:58:07;5.50;97.10
26687;DHT22;14298;50.900;4.648;2022-11-20T09:00:35;5.40;97.10
26687;DHT22;14298;50.900;4.648;2022-11-20T09:03:03;5.40;97.10
26687;DHT22;14298;50.900;4.648;2022-11-20T09:05:32;5.40;97.10
26687;DHT22;14298;50.900;4.648;2022-11-20T09:08:00;5.40;97.10
26687;DHT22;14298;50.900;4.648;2022-11-20T09:10:29;5.50;97.10
26687;DHT22;14298;50.900;4.648;2022-11-20T09:12:58;5.40;97.10
26687;DHT22;14298;50.900;4.648;2022-11-20T09:15:26;5.40;97.10
26687;DHT22;14298;50.900;4.648;2022-11-20T09:17:59;5.50;97.10
26687;DHT22;14298;50.900;4.648;2022-11-20T09:20:29;5.60;97.10
26687;DHT22;14298;50.900;4.648;2022-11-20T09:22:58;5.70;97.10
26687;DHT22;14298;50.900;4.648;2022-11-20T09:25:26;5.70;97.10
26687;DHT22;14298;50.900;4.648;2022-11-20T09:27:58;5.70;97.10
26687;DHT22;14298;50.900;4.648;2022-11-20T09:30:27;5.80;97.10
26687;DHT22;14298;50.900;4.648;2022-11-20T09:32:55;5.80;97.10
26687;DHT22;14298;50.900;4.648;2022-11-20T09:35:24;5.90;97.10
26687;DHT22;14298;50.900;4.648;2022-11-20T09:37:52;5.90;97.10
26687;DHT22;14298;50.900;4.648;2022-11-20T09:40:26;6.10;97.10
26687;DHT22;14298;50.900;4.648;2022-11-20T09:43:21;6.20;97.10
26687;DHT22;14298;50.900;4.648;2022-11-20T09:46:01;6.30;97.10
26687;DHT22;14298;50.900;4.648;2022-11-20T09:48:47;6.30;97.10
26687;DHT22;14298;50.900;4.648;2022-11-20T09:56:42;6.60;97.10
26687;DHT22;14298;50.900;4.648;2022-11-20T09:59:28;6.70;97.10
26687;DHT22;14298;50.900;4.648;2022-11-20T10:01:54;6.70;97.10
26687;DHT22;14298;50.900;4.648;2022-11-20T10:04:24;6.80;97.10
26687;DHT22;14298;50.900;4.648;2022-11-20T10:07:04;6.90;97.10
26687;DHT22;14298;50.900;4.648;2022-11-20T10:09:35;6.90;97.10
26687;DHT22;14298;50.900;4.648;2022-11-20T10:15:14;6.90;97.10
26687;DHT22;14298;50.900;4.648;2022-11-20T10:17:58;7.00;97.10
26687;DHT22;14298;50.900;4.648;2022-11-20T10:20:56;7.00;97.10
26687;DHT22;14298;50.900;4.648;2022-11-20T10:29:07;7.20;97.10
26687;DHT22;14298;50.900;4.648;2022-11-20T10:31:34;7.30;97.10
26687;DHT22;14298;50.900;4.648;2022-11-20T10:36:46;7.40;97.10
26687;DHT22;14298;50.900;4.648;2022-11-20T10:39:22;7.40;97.10
26687;DHT22;14298;50.900;4.648;2022-11-20T10:41:50;7.40;97.10
26687;DHT22;14298;50.900;4.648;2022-11-20T10:44:25;7.50;97.10
26687;DHT22;14298;50.900;4.648;2022-11-20T10:46:56;7.50;97.10
26687;DHT22;14298;50.900;4.648;2022-11-20T10:49:24;7.60;97.10
26687;DHT22;14298;50.900;4.648;2022-11-20T10:51:58;7.60;97.10
26687;DHT22;14298;50.900;4.648;2022-11-20T10:57:27;7.80;97.10
26687;DHT22;14298;50.900;4.648;2022-11-20T10:59:59;7.90;97.10
26687;DHT22;14298;50.900;4.648;2022-11-20T11:02:34;8.10;97.10
26687;DHT22;14298;50.900;4.648;2022-11-20T11:05:50;8.10;97.10
26687;DHT22;14298;50.900;4.648;2022-11-20T11:07:40;8.20;97.10
26687;DHT22;14298;50.900;4.648;2022-11-20T11:10:29;8.40;97.10
26687;DHT22;14298;50.900;4.648;2022-11-20T11:12:52;8.30;97.10
26687;DHT22;14298;50.900;4.648;2022-11-20T11:15:30;8.40;97.10
26687;DHT22;14298;50.900;4.648;2022-11-20T11:17:58;8.50;97.10
26687;DHT22;14298;50.900;4.648;2022-11-20T11:20:26;8.60;97.10
26687;DHT22;14298;50.900;4.648;2022-11-20T11:22:57;8.60;97.10
26687;DHT22;14298;50.900;4.648;2022-11-20T11:25:34;8.60;97.10
26687;DHT22;14298;50.900;4.648;2022-11-20T11:28:05;8.70;97.10
26687;DHT22;14298;50.900;4.648;2022-11-20T11:30:44;8.70;97.10
26687;DHT22;14298;50.900;4.648;2022-11-20T11:33:27;8.70;97.10
26687;DHT22;14298;50.900;4.648;2022-11-20T11:35:58;8.70;97.10
26687;DHT22;14298;50.900;4.648;2022-11-20T11:38:35;8.70;97.10
26687;DHT22;14298;50.900;4.648;2022-11-20T11:41:07;8.70;97.10
26687;DHT22;14298;50.900;4.648;2022-11-20T11:43:37;8.70;97.10
26687;DHT22;14298;50.900;4.648;2022-11-20T11:46:31;8.70;97.10
26687;DHT22;14298;50.900;4.648;2022-11-20T11:49:15;8.70;97.10
26687;DHT22;14298;50.900;4.648;2022-11-20T11:52:02;8.80;97.10
26687;DHT22;14298;50.900;4.648;2022-11-20T11:54:53;8.80;97.10
26687;DHT22;14298;50.900;4.648;2022-11-20T12:00:14;8.80;97.10
26687;DHT22;14298;50.900;4.648;2022-11-20T12:05:20;9.00;97.10
26687;DHT22;14298;50.900;4.648;2022-11-20T12:08:04;9.00;97.10
26687;DHT22;14298;50.900;4.648;2022-11-20T12:16:17;8.90;97.10
26687;DHT22;14298;50.900;4.648;2022-11-20T12:18:50;8.80;97.10
26687;DHT22;14298;50.900;4.648;2022-11-20T12:37:39;8.30;97.10
26687;DHT22;14298;50.900;4.648;2022-11-20T12:43:14;8.20;97.10
26687;DHT22;14298;50.900;4.648;2022-11-20T12:51:29;8.00;97.10
26687;DHT22;14298;50.900;4.648;2022-11-20T13:00:06;8.00;97.10
26687;DHT22;14298;50.900;4.648;2022-11-20T13:02:30;7.90;97.10
26687;DHT22;14298;50.900;4.648;2022-11-20T13:05:18;7.90;97.10
26687;DHT22;14298;50.900;4.648;2022-11-20T13:07:48;7.90;97.10
26687;DHT22;14298;50.900;4.648;2022-11-20T13:10:37;7.90;97.10
26687;DHT22;14298;50.900;4.648;2022-11-20T13:13:13;7.90;97.10
26687;DHT22;14298;50.900;4.648;2022-11-20T13:15:51;7.90;97.10
26687;DHT22;14298;50.900;4.648;2022-11-20T13:18:19;7.90;97.10
26687;DHT22;14298;50.900;4.648;2022-11-20T13:20:48;7.90;97.10
26687;DHT22;14298;50.900;4.648;2022-11-20T13:23:29;7.90;97.10
26687;DHT22;14298;50.900;4.648;2022-11-20T13:26:19;7.90;97.10
26687;DHT22;14298;50.900;4.648;2022-11-20T13:28:43;8.00;97.10
26687;DHT22;14298;50.900;4.648;2022-11-20T13:31:33;8.00;97.10
26687;DHT22;14298;50.900;4.648;2022-11-20T13:34:04;8.00;97.10
26687;DHT22;14298;50.900;4.648;2022-11-20T13:36:34;8.00;97.10
26687;DHT22;14298;50.900;4.648;2022-11-20T13:39:03;8.00;97.10
26687;DHT22;14298;50.900;4.648;2022-11-20T13:41:34;8.00;97.10
26687;DHT22;14298;50.900;4.648;2022-11-20T13:44:23;7.90;97.10
26687;DHT22;14298;50.900;4.648;2022-11-20T13:46:46;7.90;97.10
26687;DHT22;14298;50.900;4.648;2022-11-20T13:49:32;7.90;97.10
26687;DHT22;14298;50.900;4.648;2022-11-20T13:57:44;7.80;97.10
26687;DHT22;14298;50.900;4.648;2022-11-20T14:00:19;7.80;97.10
26687;DHT22;14298;50.900;4.648;2022-11-20T14:03:08;7.80;97.10
26687;DHT22;14298;50.900;4.648;2022-11-20T14:05:35;7.70;97.10
26687;DHT22;14298;50.900;4.648;2022-11-20T14:08:04;7.70;97.10
26687;DHT22;14298;50.900;4.648;2022-11-20T14:10:34;7.80;97.10
26687;DHT22;14298;50.900;4.648;2022-11-20T14:13:15;7.80;97.10
26687;DHT22;14298;50.900;4.648;2022-11-20T14:16:00;7.80;97.10
26687;DHT22;14298;50.900;4.648;2022-11-20T14:18:28;7.80;97.10
26687;DHT22;14298;50.900;4.648;2022-11-20T14:21:00;7.80;97.10
26687;DHT22;14298;50.900;4.648;2022-11-20T14:23:29;7.80;97.10
26687;DHT22;14298;50.900;4.648;2022-11-20T14:25:57;7.90;97.10
26687;DHT22;14298;50.900;4.648;2022-11-20T14:28:30;7.90;97.10
26687;DHT22;14298;50.900;4.648;2022-11-20T14:30:59;7.90;97.10
26687;DHT22;14298;50.900;4.648;2022-11-20T14:33:37;7.90;97.10
26687;DHT22;14298;50.900;4.648;2022-11-20T14:35:58;7.80;97.10
26687;DHT22;14298;50.900;4.648;2022-11-20T14:38:28;7.80;97.10
26687;DHT22;14298;50.900;4.648;2022-11-20T14:41:07;7.80;97.10
26687;DHT22;14298;50.900;4.648;2022-11-20T14:43:36;7.80;97.10
26687;DHT22;14298;50.900;4.648;2022-11-20T14:46:07;7.80;97.10
26687;DHT22;14298;50.900;4.648;2022-11-20T14:48:49;7.90;97.10
26687;DHT22;14298;50.900;4.648;2022-11-20T14:51:35;7.90;97.10
26687;DHT22;14298;50.900;4.648;2022-11-20T14:54:18;7.90;97.10
26687;DHT22;14298;50.900;4.648;2022-11-20T14:56:59;7.90;97.10
26687;DHT22;14298;50.900;4.648;2022-11-20T14:59:31;7.90;97.10
26687;DHT22;14298;50.900;4.648;2022-11-20T15:02:08;7.90;97.10
26687;DHT22;14298;50.900;4.648;2022-11-20T15:04:31;7.90;97.10
26687;DHT22;14298;50.900;4.648;2022-11-20T15:07:00;7.90;97.10
26687;DHT22;14298;50.900;4.648;2022-11-20T15:09:28;7.90;97.10
26687;DHT22;14298;50.900;4.648;2022-11-20T15:12:01;7.90;97.10
26687;DHT22;14298;50.900;4.648;2022-11-20T15:14:31;8.00;97.10
26687;DHT22;14298;50.900;4.648;2022-11-20T15:17:00;8.00;97.10
26687;DHT22;14298;50.900;4.648;2022-11-20T15:19:28;8.00;97.10
26687;DHT22;14298;50.900;4.648;2022-11-20T15:21:56;8.00;97.10
26687;DHT22;14298;50.900;4.648;2022-11-20T15:24:25;8.00;97.10
26687;DHT22;14298;50.900;4.648;2022-11-20T15:26:53;8.00;97.10
26687;DHT22;14298;50.900;4.648;2022-11-20T15:29:23;8.00;97.10
26687;DHT22;14298;50.900;4.648;2022-11-20T15:31:52;8.10;97.10
26687;DHT22;14298;50.900;4.648;2022-11-20T15:34:21;8.10;97.10
26687;DHT22;14298;50.900;4.648;2022-11-20T15:36:49;8.10;97.10
26687;DHT22;14298;50.900;4.648;2022-11-20T15:39:18;8.20;97.10
26687;DHT22;14298;50.900;4.648;2022-11-20T15:41:47;8.20;97.10
26687;DHT22;14298;50.900;4.648;2022-11-20T15:44:15;8.30;97.10
26687;DHT22;14298;50.900;4.648;2022-11-20T15:46:43;8.30;97.10
26687;DHT22;14298;50.900;4.648;2022-11-20T15:49:15;8.40;97.10
26687;DHT22;14298;50.900;4.648;2022-11-20T15:51:48;8.40;97.10
26687;DHT22;14298;50.900;4.648;2022-11-20T15:54:18;8.40;97.10
26687;DHT22;14298;50.900;4.648;2022-11-20T15:56:48;8.40;97.10
26687;DHT22;14298;50.900;4.648;2022-11-20T15:59:19;8.40;97.10
26687;DHT22;14298;50.900;4.648;2022-11-20T16:01:47;8.40;97.10
26687;DHT22;14298;50.900;4.648;2022-11-20T16:04:16;8.40;97.10
26687;DHT22;14298;50.900;4.648;2022-11-20T16:06:45;8.40;97.10
26687;DHT22;14298;50.900;4.648;2022-11-20T16:09:14;8.30;97.10
26687;DHT22;14298;50.900;4.648;2022-11-20T16:11:42;8.30;97.10
26687;DHT22;14298;50.900;4.648;2022-11-20T16:14:11;8.30;97.10
26687;DHT22;14298;50.900;4.648;2022-11-20T16:16:57;8.30;97.10
26687;DHT22;14298;50.900;4.648;2022-11-20T16:19:25;8.30;97.10
26687;DHT22;14298;50.900;4.648;2022-11-20T16:21:54;8.20;97.10
26687;DHT22;14298;50.900;4.648;2022-11-20T16:24:22;8.20;97.10
26687;DHT22;14298;50.900;4.648;2022-11-20T16:26:50;8.20;97.10
26687;DHT22;14298;50.900;4.648;2022-11-20T16:29:21;8.20;97.10
26687;DHT22;14298;50.900;4.648;2022-11-20T16:31:49;8.20;97.10
26687;DHT22;14298;50.900;4.648;2022-11-20T16:34:17;8.20;97.10
26687;DHT22;14298;50.900;4.648;2022-11-20T16:36:46;8.30;97.10
26687;DHT22;14298;50.900;4.648;2022-11-20T16:39:14;8.20;97.10
26687;DHT22;14298;50.900;4.648;2022-11-20T16:41:42;8.20;97.10
26687;DHT22;14298;50.900;4.648;2022-11-20T16:44:11;8.20;97.10
26687;DHT22;14298;50.900;4.648;2022-11-20T16:46:39;8.20;97.10
26687;DHT22;14298;50.900;4.648;2022-11-20T16:49:12;8.10;97.10
26687;DHT22;14298;50.900;4.648;2022-11-20T16:51:42;8.20;97.10
26687;DHT22;14298;50.900;4.648;2022-11-20T16:54:11;8.20;97.10
26687;DHT22;14298;50.900;4.648;2022-11-20T16:56:39;8.30;97.10
26687;DHT22;14298;50.900;4.648;2022-11-20T16:59:08;8.30;97.10
26687;DHT22;14298;50.900;4.648;2022-11-20T17:01:37;8.40;97.10
26687;DHT22;14298;50.900;4.648;2022-11-20T17:04:07;8.50;97.10
26687;DHT22;14298;50.900;4.648;2022-11-20T17:06:37;8.50;97.10
26687;DHT22;14298;50.900;4.648;2022-11-20T17:09:07;8.50;97.10
26687;DHT22;14298;50.900;4.648;2022-11-20T17:11:37;8.50;97.10
26687;DHT22;14298;50.900;4.648;2022-11-20T17:14:06;8.50;97.10
26687;DHT22;14298;50.900;4.648;2022-11-20T17:16:35;8.50;97.10
26687;DHT22;14298;50.900;4.648;2022-11-20T17:19:04;8.50;97.10